createdAt,value
2018-09-17T00:00:39.602Z,86.70
2018-09-17T00:03:06.879Z,86.70
2018-09-17T00:05:34.011Z,86.60
2018-09-17T00:08:01.222Z,86.50
2018-09-17T00:10:28.692Z,86.80
2018-09-17T00:12:55.753Z,86.10
2018-09-17T00:15:22.754Z,87.00
2018-09-17T00:17:50.149Z,87.10
2018-09-17T00:20:17.174Z,87.20
2018-09-17T00:22:44.166Z,87.30
2018-09-17T00:25:11.243Z,87.20
2018-09-17T00:27:38.239Z,87.70
2018-09-17T00:30:05.329Z,87.70
2018-09-17T00:32:32.370Z,87.50
2018-09-17T00:34:59.395Z,87.30
2018-09-17T00:37:26.391Z,87.50
2018-09-17T00:39:53.720Z,87.30
2018-09-17T00:42:20.714Z,87.90
2018-09-17T00:44:47.698Z,88.00
2018-09-17T00:47:14.989Z,88.10
2018-09-17T01:26:42.715Z,88.80
2018-09-17T01:29:09.930Z,94.30
2018-09-17T01:31:36.862Z,94.30
2018-09-17T01:34:03.873Z,94.30
2018-09-17T01:36:31.126Z,94.40
2018-09-17T01:38:58.153Z,94.00
2018-09-17T01:41:25.490Z,93.50
2018-09-17T01:43:52.817Z,93.50
2018-09-17T01:46:19.880Z,93.40
2018-09-17T01:48:46.851Z,91.90
2018-09-17T01:51:13.895Z,91.70
2018-09-17T01:53:40.897Z,91.10
2018-09-17T01:56:07.925Z,92.30
2018-09-17T01:58:35.348Z,90.50
2018-09-17T02:01:02.305Z,90.50
2018-09-17T02:03:29.302Z,91.10
2018-09-17T02:05:56.496Z,90.70
2018-09-17T02:08:23.470Z,91.30
2018-09-17T02:10:50.467Z,91.40
2018-09-17T02:13:17.893Z,91.90
2018-09-17T02:15:44.819Z,91.30
2018-09-17T02:18:11.790Z,91.80
2018-09-17T02:20:39.012Z,92.00
2018-09-17T02:23:06.094Z,93.70
2018-09-17T02:25:33.086Z,92.90
2018-09-17T02:28:00.440Z,92.90
2018-09-17T02:30:27.402Z,93.00
2018-09-17T02:32:54.365Z,93.60
2018-09-17T02:35:21.611Z,93.20
2018-09-17T02:37:48.641Z,99.90
2018-09-17T02:40:16.893Z,93.80
2018-09-17T02:42:44.936Z,94.50
2018-09-17T02:45:11.919Z,99.90
2018-09-17T02:47:38.915Z,99.90
2018-09-17T02:50:06.699Z,95.00
2018-09-17T02:52:33.675Z,95.10
2018-09-17T02:55:00.638Z,94.80
2018-09-17T02:57:28.046Z,94.90
2018-09-17T02:59:55.013Z,95.10
2018-09-17T03:02:21.949Z,95.10
2018-09-17T03:04:49.218Z,95.20
2018-09-17T03:09:43.259Z,94.80
2018-09-17T03:12:10.240Z,96.30
2018-09-17T03:14:37.153Z,96.20
2018-09-17T03:17:12.282Z,96.40
2018-09-17T04:25:58.798Z,96.70
2018-09-17T04:28:25.844Z,95.00
2018-09-17T04:30:52.933Z,93.80
2018-09-17T04:33:19.906Z,95.40
2018-09-17T04:35:46.925Z,93.60
2018-09-17T05:51:49.048Z,94.30
2018-09-17T05:54:15.973Z,83.20
2018-09-17T06:01:37.323Z,79.10
2018-09-17T06:04:04.306Z,75.10
2018-09-17T06:06:31.598Z,72.90
2018-09-17T06:31:03.150Z,68.20
2018-09-17T06:33:30.174Z,53.00
2018-09-17T06:35:57.195Z,56.80
2018-09-17T06:38:24.226Z,59.80
2018-09-17T17:33:42.791Z,59.40
2018-09-17T18:40:03.490Z,36.00
2018-09-17T18:42:30.618Z,45.90
2018-09-17T18:45:16.079Z,46.70
2018-09-17T18:47:43.447Z,47.10
2018-09-17T18:50:10.424Z,48.40
2018-09-17T18:52:37.501Z,47.80
2018-09-17T19:04:53.950Z,48.80
2018-09-17T19:07:21.093Z,50.30
2018-09-17T19:09:49.544Z,51.30
2018-09-17T19:12:17.802Z,51.30
2018-09-17T19:14:51.165Z,51.30
2018-09-17T19:17:24.000Z,51.50
2018-09-17T19:19:51.595Z,51.60
2018-09-17T19:22:24.937Z,52.00
2018-09-17T19:24:52.094Z,52.30
2018-09-17T19:27:19.169Z,52.20
2018-09-17T19:29:46.287Z,52.60
2018-09-17T19:32:13.536Z,52.80
2018-09-17T19:34:40.529Z,53.20
2018-09-17T19:37:13.703Z,52.80
2018-09-17T19:39:46.557Z,51.90
2018-09-17T19:42:13.948Z,51.80
2018-09-17T19:44:45.570Z,51.70
2018-09-17T19:47:12.658Z,51.50
2018-09-17T19:49:40.172Z,51.00
2018-09-17T19:52:13.120Z,51.30
2018-09-17T19:54:40.235Z,51.50
2018-09-17T19:57:11.988Z,52.30
2018-09-17T19:59:45.329Z,52.40
2018-09-17T20:02:12.349Z,52.40
2018-09-17T20:04:45.665Z,51.80
2018-09-17T20:07:13.273Z,51.80
2018-09-17T20:09:40.852Z,52.40
2018-09-17T20:12:09.464Z,52.60
2018-09-17T20:14:36.972Z,52.90
2018-09-17T20:17:03.989Z,52.80
2018-09-17T20:19:30.997Z,52.60
2018-09-17T20:21:58.405Z,52.80
2018-09-17T20:24:25.441Z,53.00
2018-09-17T20:26:52.792Z,52.60
2018-09-17T20:29:19.846Z,52.70
2018-09-17T20:31:46.927Z,52.80
2018-09-17T20:34:14.490Z,53.00
2018-09-17T20:36:41.485Z,53.20
2018-09-17T20:39:09.042Z,52.90
2018-09-17T20:41:36.132Z,52.90
2018-09-17T20:44:03.124Z,53.10
2018-09-17T20:46:30.194Z,53.40
2018-09-17T20:48:57.600Z,54.10
2018-09-17T20:51:24.684Z,54.40
2018-09-17T20:53:51.688Z,54.70
2018-09-17T20:56:19.029Z,55.10
2018-09-17T20:58:46.175Z,55.10
2018-09-17T21:01:13.211Z,55.30
2018-09-17T21:03:40.602Z,55.50
2018-09-17T21:06:07.722Z,55.60
2018-09-17T21:08:34.771Z,55.70
2018-09-17T21:11:02.175Z,57.00
2018-09-17T21:13:29.322Z,56.70
2018-09-17T21:15:56.364Z,57.20
2018-09-17T21:18:23.822Z,57.40
2018-09-17T21:20:50.928Z,57.50
2018-09-17T21:23:17.967Z,58.00
2018-09-17T21:25:44.964Z,58.30
2018-09-17T21:28:12.075Z,57.40
2018-09-17T21:30:39.225Z,58.00
2018-09-17T21:33:06.602Z,57.20
2018-09-17T21:35:33.583Z,57.70
2018-09-17T21:38:00.598Z,57.70
2018-09-17T21:40:27.942Z,58.00
2018-09-17T21:42:55.024Z,58.30
2018-09-17T21:45:22.100Z,58.20
2018-09-17T21:47:49.695Z,58.50
2018-09-17T21:50:16.781Z,58.20
2018-09-17T21:52:43.877Z,58.40
2018-09-17T21:57:38.160Z,58.70
2018-09-17T22:00:05.283Z,60.70
2018-09-17T22:02:32.714Z,60.90
2018-09-17T22:04:59.733Z,62.90
2018-09-17T22:07:26.715Z,63.50
2018-09-17T22:09:54.275Z,63.50
2018-09-17T22:12:21.351Z,63.50
2018-09-17T22:14:48.615Z,64.00
2018-09-17T22:22:04.989Z,64.70
2018-09-17T22:24:32.153Z,63.40
2018-09-17T22:26:59.369Z,62.90
2018-09-17T22:29:26.491Z,62.30
2018-09-17T22:31:53.810Z,62.30
2018-09-17T22:34:20.869Z,61.90
2018-09-17T22:36:47.904Z,60.70
2018-09-17T22:39:15.242Z,61.60
2018-09-17T22:41:42.242Z,61.20
2018-09-17T22:44:09.255Z,61.40
2018-09-17T22:46:36.729Z,61.50
2018-09-17T22:49:03.811Z,61.40
2018-09-17T22:51:30.919Z,61.40
2018-09-17T22:53:57.976Z,62.00
2018-09-17T22:56:26.835Z,61.60
2018-09-17T22:58:55.692Z,61.60
2018-09-17T23:01:23.123Z,61.90
2018-09-17T23:03:50.180Z,61.80
2018-09-17T23:06:17.274Z,62.60
2018-09-17T23:08:44.709Z,62.30
2018-09-17T23:11:12.124Z,62.20
2018-09-17T23:13:39.520Z,62.40
2018-09-17T23:16:07.380Z,62.40
2018-09-17T23:18:34.927Z,62.50
2018-09-17T23:21:02.513Z,62.50
2018-09-17T23:23:30.797Z,62.60
2018-09-17T23:25:58.501Z,63.10
2018-09-17T23:28:26.098Z,63.20
2018-09-17T23:30:54.087Z,63.90
2018-09-17T23:33:21.514Z,64.10
2018-09-17T23:35:49.468Z,64.50
2018-09-17T23:38:17.223Z,64.80
2018-09-17T23:40:45.557Z,65.00
2018-09-17T23:43:12.678Z,66.90
2018-09-17T23:48:07.482Z,68.20
2018-09-17T23:50:34.420Z,69.90
2018-09-17T23:53:01.658Z,70.50
2018-09-17T23:55:28.654Z,71.30
2018-09-17T23:57:55.690Z,71.90
